createdAt,value
2023-02-07T00:00:48.961Z,27.42
2023-02-07T00:05:51.018Z,29.17
2023-02-07T00:10:53.036Z,59.25
2023-02-07T00:15:55.193Z,50.72
2023-02-07T00:21:24.255Z,37.50
2023-02-07T00:26:27.487Z,16.75
2023-02-07T00:31:32.427Z,15.60
2023-02-07T00:36:36.559Z,17.50
2023-02-07T00:41:38.980Z,12.48
2023-02-07T00:46:41.177Z,14.45
2023-02-07T00:51:43.224Z,12.18
2023-02-07T00:56:45.471Z,15.85
2023-02-07T01:01:48.053Z,10.88
2023-02-07T01:06:50.097Z,12.63
2023-02-07T01:11:52.915Z,10.38
2023-02-07T01:16:55.110Z,12.10
2023-02-07T01:21:59.349Z,13.63
2023-02-07T01:27:02.214Z,12.52
2023-02-07T01:32:04.475Z,10.10
2023-02-07T01:37:06.679Z,11.77
2023-02-07T01:42:14.732Z,11.73
2023-02-07T01:47:23.758Z,11.95
2023-02-07T01:52:33.812Z,11.43
2023-02-07T01:57:36.562Z,11.05
2023-02-07T02:02:38.803Z,9.80
2023-02-07T02:07:41.277Z,11.38
2023-02-07T02:13:14.902Z,12.77
2023-02-07T02:18:35.496Z,10.80
2023-02-07T02:23:40.321Z,15.00
2023-02-07T02:28:48.272Z,8.47
2023-02-07T02:34:08.899Z,10.52
2023-02-07T02:39:32.602Z,9.15
2023-02-07T02:44:47.211Z,11.43
2023-02-07T02:49:49.899Z,13.57
2023-02-07T02:54:52.872Z,11.65
2023-02-07T03:00:26.920Z,10.57
2023-02-07T03:05:59.084Z,7.97
2023-02-07T03:11:10.685Z,9.02
2023-02-07T03:16:22.643Z,9.00
2023-02-07T03:21:37.509Z,13.93
2023-02-07T03:26:42.389Z,9.70
2023-02-07T03:31:48.583Z,9.37
2023-02-07T03:36:58.832Z,9.13
2023-02-07T03:42:05.305Z,11.00
2023-02-07T03:47:07.400Z,12.52
2023-02-07T03:52:09.571Z,8.85
2023-02-07T03:57:14.599Z,9.65
2023-02-07T04:02:16.760Z,10.25
2023-02-07T04:07:18.935Z,7.90
2023-02-07T04:12:20.948Z,10.65
2023-02-07T04:17:22.980Z,12.75
2023-02-07T04:22:24.987Z,9.80
2023-02-07T04:27:27.016Z,9.30
2023-02-07T04:32:29.148Z,8.35
2023-02-07T04:37:31.187Z,8.27
2023-02-07T04:42:33.227Z,6.65
2023-02-07T04:47:35.236Z,9.18
2023-02-07T04:52:37.672Z,5.93
2023-02-07T04:57:39.774Z,9.45
2023-02-07T05:02:42.184Z,11.70
2023-02-07T05:07:44.187Z,8.93
2023-02-07T05:12:46.197Z,9.27
2023-02-07T05:17:48.492Z,7.10
2023-02-07T05:22:50.689Z,13.40
2023-02-07T05:27:52.911Z,10.07
2023-02-07T05:33:03.861Z,8.50
2023-02-07T05:38:11.700Z,11.20
2023-02-07T05:43:14.356Z,12.27
2023-02-07T05:48:16.558Z,11.95
2023-02-07T05:53:18.704Z,13.73
2023-02-07T05:58:20.721Z,10.13
2023-02-07T06:03:22.763Z,7.75
2023-02-07T06:08:24.825Z,7.85
2023-02-07T06:13:26.927Z,9.23
2023-02-07T06:18:28.947Z,9.70
2023-02-07T06:23:31.062Z,9.50
2023-02-07T06:28:33.126Z,9.43
2023-02-07T06:33:35.247Z,9.57
2023-02-07T06:38:37.281Z,10.52
2023-02-07T06:43:40.778Z,11.00
2023-02-07T06:48:42.866Z,8.73
2023-02-07T06:53:44.899Z,9.05
2023-02-07T06:58:46.981Z,7.97
2023-02-07T07:03:49.046Z,8.27
2023-02-07T07:08:51.831Z,12.98
2023-02-07T07:13:53.905Z,12.23
2023-02-07T07:18:55.909Z,17.77
2023-02-07T07:23:58.180Z,16.75
2023-02-07T07:29:00.497Z,17.58
2023-02-07T07:34:02.510Z,14.82
2023-02-07T07:39:05.274Z,34.38
2023-02-07T07:44:07.299Z,31.55
2023-02-07T07:49:09.756Z,31.60
2023-02-07T07:54:11.793Z,13.18
2023-02-07T07:59:23.617Z,10.40
2023-02-07T08:04:26.232Z,8.65
2023-02-07T08:09:28.263Z,15.40
2023-02-07T08:14:30.443Z,15.32
2023-02-07T08:19:32.617Z,15.93
2023-02-07T08:24:36.021Z,15.38
2023-02-07T08:29:38.155Z,12.65
2023-02-07T08:34:40.473Z,16.90
2023-02-07T08:39:42.488Z,18.98
2023-02-07T08:44:44.688Z,18.30
2023-02-07T08:49:46.793Z,15.77
2023-02-07T08:54:48.877Z,21.05
2023-02-07T08:59:51.149Z,20.25
2023-02-07T09:04:53.488Z,28.25
2023-02-07T09:09:56.963Z,29.55
2023-02-07T09:14:59.090Z,18.85
2023-02-07T09:20:01.212Z,15.82
2023-02-07T09:25:03.348Z,18.00
2023-02-07T09:30:06.772Z,23.17
2023-02-07T09:35:09.350Z,24.05
2023-02-07T09:40:19.141Z,18.42
2023-02-07T09:45:25.322Z,25.02
2023-02-07T09:50:39.227Z,19.77
2023-02-07T09:55:47.137Z,20.90
2023-02-07T10:01:14.430Z,25.45
2023-02-07T10:06:27.188Z,19.73
2023-02-07T10:11:34.469Z,18.52
2023-02-07T10:16:51.422Z,23.15
2023-02-07T10:21:53.400Z,24.48
2023-02-07T10:27:06.802Z,19.30
2023-02-07T10:32:32.635Z,25.13
2023-02-07T10:37:38.960Z,17.55
2023-02-07T10:42:43.262Z,16.77
2023-02-07T10:47:45.723Z,22.15
2023-02-07T10:52:54.329Z,17.17
2023-02-07T10:58:02.623Z,14.75
2023-02-07T11:03:12.542Z,18.45
2023-02-07T11:08:14.515Z,14.15
2023-02-07T11:13:24.096Z,19.90
2023-02-07T11:18:37.534Z,13.05
2023-02-07T11:23:44.444Z,11.00
2023-02-07T11:28:50.864Z,10.45
2023-02-07T11:33:53.055Z,13.20
2023-02-07T11:38:58.432Z,11.13
2023-02-07T11:44:02.198Z,10.82
2023-02-07T11:49:09.218Z,10.80
2023-02-07T11:54:14.227Z,12.65
2023-02-07T11:59:20.780Z,13.23
2023-02-07T12:04:30.862Z,12.85
2023-02-07T12:09:53.957Z,8.57
2023-02-07T12:15:02.276Z,11.70
2023-02-07T12:20:35.427Z,14.57
2023-02-07T12:25:45.945Z,9.60
2023-02-07T12:30:53.890Z,10.15
2023-02-07T12:36:03.929Z,16.52
2023-02-07T12:41:24.476Z,13.70
2023-02-07T12:46:29.340Z,11.85
2023-02-07T12:51:48.925Z,8.13
2023-02-07T12:57:08.333Z,9.52
2023-02-07T13:02:13.578Z,11.40
2023-02-07T13:07:39.755Z,9.67
2023-02-07T13:12:56.550Z,6.65
2023-02-07T13:18:14.063Z,10.40
2023-02-07T13:23:24.159Z,5.88
2023-02-07T13:28:52.842Z,6.63
2023-02-07T13:33:55.361Z,4.28
2023-02-07T13:39:22.356Z,5.57
2023-02-07T13:44:42.969Z,8.27
2023-02-07T13:49:56.599Z,7.65
2023-02-07T13:55:07.608Z,5.80
2023-02-07T14:00:12.623Z,7.68
2023-02-07T14:05:33.189Z,7.53
2023-02-07T14:10:48.984Z,6.22
2023-02-07T14:15:59.052Z,9.18
2023-02-07T14:21:03.356Z,8.27
2023-02-07T14:26:37.591Z,6.50
2023-02-07T14:31:48.900Z,5.75
2023-02-07T14:36:55.034Z,8.52
2023-02-07T14:47:08.001Z,5.22
2023-02-07T14:52:24.077Z,8.15
2023-02-07T14:57:44.677Z,5.45
2023-02-07T15:03:05.612Z,4.25
2023-02-07T15:08:16.248Z,8.90
2023-02-07T15:13:23.750Z,5.22
2023-02-07T15:18:30.164Z,5.57
2023-02-07T15:23:33.093Z,4.65
2023-02-07T15:28:35.498Z,7.10
2023-02-07T15:33:47.741Z,7.05
2023-02-07T15:38:50.147Z,8.50
2023-02-07T15:44:18.460Z,7.18
2023-02-07T15:49:42.098Z,6.78
2023-02-07T15:54:50.030Z,5.43
2023-02-07T15:59:55.470Z,8.40
2023-02-07T16:05:11.894Z,5.10
2023-02-07T16:10:23.084Z,7.30
2023-02-07T16:15:35.017Z,7.85
2023-02-07T16:20:37.617Z,7.70
2023-02-07T16:25:41.440Z,7.95
2023-02-07T16:30:43.605Z,14.18
2023-02-07T16:35:45.935Z,7.88
2023-02-07T16:40:49.298Z,10.75
2023-02-07T16:45:51.435Z,11.85
2023-02-07T16:50:53.604Z,9.00
2023-02-07T16:55:57.454Z,10.05
2023-02-07T17:01:00.346Z,10.40
2023-02-07T17:06:02.972Z,12.60
2023-02-07T17:11:06.965Z,20.25
2023-02-07T17:16:15.033Z,11.38
2023-02-07T17:21:18.255Z,12.43
2023-02-07T17:26:27.487Z,13.13
2023-02-07T17:31:32.074Z,11.18
2023-02-07T17:36:34.835Z,13.57
2023-02-07T17:41:36.859Z,13.43
2023-02-07T17:46:39.012Z,11.23
2023-02-07T17:51:41.135Z,10.80
2023-02-07T17:56:43.407Z,7.13
2023-02-07T18:01:45.602Z,6.90
2023-02-07T18:06:48.093Z,12.20
2023-02-07T18:11:50.607Z,10.45
2023-02-07T18:16:52.674Z,13.23
2023-02-07T18:21:54.751Z,11.57
2023-02-07T18:26:57.094Z,8.80
2023-02-07T18:31:59.191Z,8.70
2023-02-07T18:37:01.443Z,8.43
2023-02-07T18:42:06.222Z,5.93
2023-02-07T18:47:12.024Z,9.18
2023-02-07T18:52:17.079Z,10.25
2023-02-07T18:57:22.735Z,11.00
2023-02-07T19:02:26.074Z,8.75
2023-02-07T19:07:28.416Z,9.32
2023-02-07T19:12:31.591Z,6.30
2023-02-07T19:17:35.786Z,9.35
2023-02-07T19:22:38.520Z,8.40
2023-02-07T19:27:40.882Z,9.73
2023-02-07T19:32:43.033Z,8.23
2023-02-07T19:37:45.977Z,7.00
2023-02-07T19:42:48.035Z,8.07
2023-02-07T19:47:51.191Z,8.95
2023-02-07T19:52:53.978Z,8.93
2023-02-07T19:57:56.244Z,8.80
2023-02-07T20:02:58.789Z,9.05
2023-02-07T20:08:01.092Z,10.13
2023-02-07T20:13:03.230Z,8.05
2023-02-07T20:18:05.436Z,11.15
2023-02-07T20:23:09.517Z,12.38
2023-02-07T20:28:11.776Z,11.27
2023-02-07T20:33:13.903Z,12.27
2023-02-07T20:38:16.122Z,10.63
2023-02-07T20:43:18.205Z,11.23
2023-02-07T20:48:20.553Z,9.93
2023-02-07T20:53:22.605Z,12.20
2023-02-07T20:58:24.675Z,11.20
2023-02-07T21:03:26.743Z,8.82
2023-02-07T21:08:28.945Z,10.75
2023-02-07T21:13:31.741Z,11.05
2023-02-07T21:18:34.933Z,10.57
2023-02-07T21:23:37.074Z,16.23
2023-02-07T21:28:39.588Z,22.08
2023-02-07T21:33:41.906Z,23.17
2023-02-07T21:38:47.562Z,14.43
2023-02-07T21:43:49.725Z,14.20
2023-02-07T21:49:03.878Z,12.63
2023-02-07T21:54:07.516Z,14.52
2023-02-07T21:59:15.483Z,15.18
2023-02-07T22:04:17.942Z,15.95
2023-02-07T22:09:22.336Z,14.18
2023-02-07T22:14:29.422Z,15.75
2023-02-07T22:19:31.602Z,17.13
2023-02-07T22:24:33.787Z,17.00
2023-02-07T22:29:36.058Z,18.55
2023-02-07T22:34:38.125Z,15.32
2023-02-07T22:39:40.469Z,17.83
2023-02-07T22:44:42.555Z,15.95
2023-02-07T22:49:44.597Z,21.35
2023-02-07T22:54:46.833Z,19.40
2023-02-07T22:59:48.941Z,21.48
2023-02-07T23:04:51.036Z,22.73
2023-02-07T23:09:54.338Z,20.05
2023-02-07T23:14:56.417Z,16.42
2023-02-07T23:19:59.099Z,18.85
2023-02-07T23:25:01.202Z,17.77
2023-02-07T23:30:04.028Z,21.17
2023-02-07T23:35:07.123Z,17.23
2023-02-07T23:40:09.873Z,21.27
2023-02-07T23:45:12.215Z,19.63
2023-02-07T23:50:14.388Z,15.43
2023-02-07T23:55:16.617Z,23.00
